Rejestracja

Wszystkie dane podawane są w czasie UTC za wyjątkiem miejsc gdzie jest jednoznacznie podane, że jest inaczej. Dane podawane w serwisie mają charakter informacyjny!!!
Informacje w sprawie dostępu do serwisu pod numerem tel. +48 261-828-138

Aktualna Pogoda
 
Pogoda w Polsce
21°C Szczecin 30°C Suwałki 29°C Warszawa 29°C Poznan
33°C Opole 30°C Kraków 28°C Rzeszów
Więcej miast w Polsce

Pogoda w Europie
28°C Berlin 19°C Paryz 15°C Bruksela 23°C Oslo
23°C Praga 27°C Zagrzeb
Więcej miast w Europie

Metary wojskowe test
METAR EPBC 251700Z 12008KT CAVOK 30/20 Q1012=
METAR EPCE 251730Z 12007KT 9999 VCTS -SHRA SCT040CB BKN083 BKN144 21/18 Q1011 RMK 205 086 7/3=
SPECI EPDA 251731Z 21015G27KT 9999 -TSRA SCT039CB BKN102 21/19 Q1010 RMK 211 087 7/4=
METAR EPDE 251730Z 11010KT CAVOK 30/21 Q1013 RMK 299 060 5/5=
SPECI EPIR 251723Z 06014G22KT 4000 VCTS BKN016CB 21/17 Q1009 RMK 212 077 7/7=
METAR EPKS 251730Z 22004KT 9999 SCT040CB BKN200 28/18 Q1008 RMK 283 054 7/4=
METAR EPLK 251730Z 16008KT CAVOK 32/14 Q1010 RMK 323 033 3/3=
METAR EPLY 251730Z 15006KT CAVOK 33/15 Q1010 RMK 333 033 2/1=
METAR EPMB 251730Z 00000KT 9999 SCT050CB BKN100 25/19 Q1010 RMK 253 067 5/4=
METAR EPMI 251700Z 03008G20KT 8000 TSRA BKN020CB BKN030 20/19 Q1011 RMK 201 092 7/5=
METAR EPMM 251730Z /////KT 9999 BKN070 23/22 Q1014 RMK 228 094 7/7=
METAR EPOK 251730Z 30008KT 9999 FEW044 SCT073 BKN116 22/20 Q1010 RMK 220 087 6/1 LTG DSNT SW=
METAR EPPR 251700Z 33002KT 9999 SCT033CB BKN050 23/20 Q1009 RMK 226 084 6/3=
METAR EPPW 251730Z VRB02KT 9999 FEW050TCU BKN090 23/21 Q1009 RMK 234 088 5/2=
METAR EPSN 251730Z 36004KT 5000 TSRA BKN015CB OVC040 19/19 Q1009 RMK 191 098 8/5=
METAR EPTM 251700Z 14006KT CAVOK 33/15 Q1011 RMK 328 034 1/1=


 
Informacje ogólne
Pogoda
Warszawa
Temperatura: 29.0°C
Wiatr: 7.0 m/s
Ciśnienie: 1011.6 hPa
Zjawiska: Brak
Temp. max: 33.0 °C
Temp. min: 22.6 °C


Dane astronomiczne
Warszawa:
Dzien: 16:45 h
Noc: 07:15 h


Using HW VSP powered by HW group.

Prawa autorskie©2007 SSH SZ RP. Wszelkie prawa zastrzeżone.